Time;durP1;ratioP1;P1;durP2;ratioP2;P2;SDS_P1;SDS_P2;PMS_P1;PMS_P2;Temp;Humidity;BMP_temperature;BMP_pressure;BME280_temperature;BME280_humidity;BME280_pressure;Samples;Min_cycle;Max_cycle;Signal;HPM_P1;HPM_P2
2023/01/28 00:01:56;;;;;;;12.10;4.40;;;-1.50;99.90;;;;;;5208878;28;20214;-49
2023/01/28 00:04:26;;;;;;;6.77;3.93;;;-1.50;99.90;;;;;;5207611;28;20191;-50
2023/01/28 00:06:57;;;;;;;13.47;3.90;;;-1.60;99.90;;;;;;5228167;28;20191;-48
2023/01/28 00:09:28;;;;;;;10.40;3.43;;;-1.60;99.90;;;;;;5224949;28;20210;-49
2023/01/28 00:11:59;;;;;;;4.43;3.07;;;-1.60;99.90;;;;;;5208927;28;20179;-48
2023/01/28 00:14:35;;;;;;;5.67;3.27;;;-1.60;99.90;;;;;;5226943;28;20517;-49
2023/01/28 00:17:06;;;;;;;3.27;2.70;;;-1.70;99.90;;;;;;5207607;28;20527;-51
2023/01/28 00:19:37;;;;;;;11.77;3.73;;;-1.60;99.90;;;;;;5209295;28;20461;-47
2023/01/28 00:22:08;;;;;;;3.90;3.30;;;-1.70;99.90;;;;;;5201188;28;20464;-49
2023/01/28 00:24:38;;;;;;;12.47;3.50;;;-1.70;99.90;;;;;;5220175;28;20198;-50
2023/01/28 00:27:09;;;;;;;8.47;4.20;;;-1.80;99.90;;;;;;5203352;28;20175;-48
2023/01/28 00:29:40;;;;;;;5.67;3.47;;;-1.70;99.90;;;;;;5208201;28;20281;-49
2023/01/28 00:32:11;;;;;;;8.67;3.63;;;-1.70;99.90;;;;;;5223145;28;20655;-50
2023/01/28 00:34:42;;;;;;;7.97;2.70;;;-1.80;99.90;;;;;;5204924;28;20194;-49
2023/01/28 00:37:12;;;;;;;8.53;3.10;;;-1.80;99.90;;;;;;5205058;28;20221;-50
2023/01/28 00:39:43;;;;;;;4.73;3.50;;;-1.80;99.90;;;;;;5223496;28;20642;-49
2023/01/28 00:42:15;;;;;;;4.60;2.77;;;-1.90;99.90;;;;;;5207680;28;20175;-48
2023/01/28 00:44:46;;;;;;;6.30;3.40;;;-1.90;99.90;;;;;;5211452;28;20175;-48
2023/01/28 00:47:16;;;;;;;6.70;3.13;;;-1.80;99.90;;;;;;5206473;28;20445;-48
2023/01/28 00:49:47;;;;;;;6.53;3.37;;;-1.80;99.90;;;;;;5226828;28;20452;-50
2023/01/28 00:52:18;;;;;;;5.00;3.50;;;-1.90;99.90;;;;;;5207433;28;20185;-48
2023/01/28 00:54:49;;;;;;;4.67;2.80;;;-2.00;99.90;;;;;;5208405;28;20664;-48
2023/01/28 00:57:19;;;;;;;4.60;2.63;;;-2.00;99.90;;;;;;5207529;28;20179;-49
2023/01/28 00:59:50;;;;;;;4.43;2.80;;;-2.00;99.90;;;;;;5206389;28;20213;-48
2023/01/28 01:02:21;;;;;;;7.73;3.40;;;-2.00;99.90;;;;;;5224729;28;20208;-49
2023/01/28 01:04:58;;;;;;;4.20;2.80;;;-2.00;99.90;;;;;;5208379;28;20178;-48
2023/01/28 01:07:42;;;;;;;5.03;3.00;;;-1.90;99.90;;;;;;5224686;28;20425;-48
2023/01/28 01:10:15;;;;;;;4.80;2.40;;;-2.00;99.90;;;;;;5193652;28;21011;-49
2023/01/28 01:12:48;;;;;;;4.37;2.60;;;-2.00;99.90;;;;;;5225601;28;20830;-50
2023/01/28 01:15:19;;;;;;;4.73;2.70;;;-2.10;99.90;;;;;;5225170;28;20518;-48
2023/01/28 01:17:50;;;;;;;3.13;2.73;;;-2.00;99.90;;;;;;5226803;28;20510;-49
2023/01/28 01:20:24;;;;;;;3.03;2.37;;;-2.00;99.90;;;;;;5224776;28;20483;-49
2023/01/28 01:22:55;;;;;;;4.80;2.30;;;-1.90;99.90;;;;;;5207677;28;20433;-48
2023/01/28 01:25:26;;;;;;;2.60;2.30;;;-1.80;99.90;;;;;;5224876;28;20434;-48
2023/01/28 01:27:57;;;;;;;3.10;2.23;;;-1.70;99.90;;;;;;5207330;28;20444;-49
2023/01/28 01:30:27;;;;;;;4.00;2.30;;;-1.60;99.90;;;;;;5207996;28;20342;-49
2023/01/28 01:32:58;;;;;;;2.90;2.10;;;-1.40;99.90;;;;;;5190481;28;20269;-47
2023/01/28 01:35:29;;;;;;;5.40;2.47;;;-1.40;99.90;;;;;;5227304;28;20207;-49
2023/01/28 01:38:03;;;;;;;3.70;2.40;;;-1.30;99.90;;;;;;5209103;28;20640;-49
2023/01/28 01:40:34;;;;;;;3.80;1.93;;;-1.30;99.90;;;;;;5207757;28;20207;-50
2023/01/28 01:43:17;;;;;;;4.93;2.83;;;-1.10;99.90;;;;;;5223792;28;20434;-49
2023/01/28 01:45:56;;;;;;;6.13;3.30;;;-1.10;99.90;;;;;;5207170;28;20433;-49
2023/01/28 01:48:32;;;;;;;9.33;2.70;;;-1.00;99.90;;;;;;5206369;28;20918;-50
2023/01/28 01:51:08;;;;;;;5.47;2.83;;;-0.90;99.90;;;;;;5225300;28;20441;-51
2023/01/28 01:53:43;;;;;;;5.70;2.97;;;-0.90;99.90;;;;;;5224469;28;20421;-50
2023/01/28 01:56:17;;;;;;;3.80;2.60;;;-0.80;99.90;;;;;;5225402;28;20494;-48
2023/01/28 01:58:50;;;;;;;12.13;2.57;;;-0.90;99.90;;;;;;5208058;28;20841;-48
2023/01/28 02:01:29;;;;;;;2.10;2.00;;;-0.90;99.90;;;;;;5225204;28;20444;-48
2023/01/28 02:04:03;;;;;;;2.63;2.40;;;-0.90;99.90;;;;;;5206629;28;20560;-50
2023/01/28 02:06:35;;;;;;;3.33;2.50;;;-0.80;99.90;;;;;;5204047;28;20429;-49
2023/01/28 02:09:40;;;;;;;3.80;2.77;;;-0.80;99.90;;;;;;5205888;28;20445;-48
2023/01/28 02:12:14;;;;;;;2.73;1.90;;;-0.70;99.90;;;;;;5174346;28;20501;-49
2023/01/28 02:14:50;;;;;;;2.87;2.13;;;-0.60;99.90;;;;;;5225302;28;20445;-49
2023/01/28 02:17:22;;;;;;;4.43;2.30;;;-0.60;99.90;;;;;;5223098;28;20437;-49
2023/01/28 02:19:57;;;;;;;9.03;2.93;;;-0.60;99.90;;;;;;5221459;28;20469;-50
2023/01/28 02:22:49;;;;;;;4.83;2.13;;;-0.70;99.90;;;;;;5222336;28;20433;-48
2023/01/28 02:25:25;;;;;;;2.43;2.20;;;-0.60;99.90;;;;;;5204461;28;20474;-48
2023/01/28 02:28:15;;;;;;;1.97;1.83;;;-0.70;99.90;;;;;;5223612;28;20460;-48
2023/01/28 02:31:14;;;;;;;6.40;3.20;;;-0.60;99.90;;;;;;5203050;28;20446;-49
2023/01/28 02:33:45;;;;;;;2.97;2.10;;;-0.50;99.90;;;;;;5223593;28;20457;-47
2023/01/28 02:36:31;;;;;;;12.60;2.97;;;-0.60;99.90;;;;;;5205526;28;20465;-48
2023/01/28 02:39:11;;;;;;;5.53;3.20;;;-0.50;99.90;;;;;;5224602;28;20218;-49
2023/01/28 02:41:49;;;;;;;9.87;2.53;;;-0.40;99.90;;;;;;5221887;28;20607;-49
2023/01/28 02:44:19;;;;;;;2.77;2.63;;;-0.50;99.90;;;;;;5208714;28;20440;-48
2023/01/28 02:49:48;;;;;;;3.23;2.83;;;-0.40;99.90;;;;;;5218781;28;20287;-50
2023/01/28 02:55:43;;;;;;;1.90;1.50;;;-0.30;99.90;;;;;;5222967;28;20496;-49
2023/01/28 02:58:25;;;;;;;4.80;2.27;;;-0.40;99.90;;;;;;5220937;28;20471;-50
2023/01/28 03:01:15;;;;;;;4.37;2.13;;;-0.40;99.90;;;;;;5204006;28;20453;-49
2023/01/28 03:04:03;;;;;;;2.37;1.90;;;-0.40;99.90;;;;;;5222363;28;20440;-49
2023/01/28 03:06:40;;;;;;;2.20;2.07;;;-0.40;99.90;;;;;;5220018;28;20430;-50
2023/01/28 03:09:22;;;;;;;1.67;1.60;;;-0.40;99.90;;;;;;5220960;28;22115;-50
2023/01/28 03:38:32;;;;;;;4.27;1.90;;;-0.20;99.90;;;;;;5220641;28;20598;-48
2023/01/28 03:41:03;;;;;;;1.73;1.63;;;-0.20;99.90;;;;;;5221249;28;20451;-50
2023/01/28 03:43:34;;;;;;;2.10;2.00;;;-0.20;99.90;;;;;;5206788;28;20972;-49
2023/01/28 03:46:06;;;;;;;1.83;1.33;;;-0.20;99.90;;;;;;5218293;28;20184;-50
2023/01/28 03:48:36;;;;;;;3.60;2.20;;;-0.20;99.90;;;;;;5221561;28;20872;-47
2023/01/28 03:51:07;;;;;;;1.87;1.77;;;-0.10;99.90;;;;;;5207575;28;20449;-49
2023/01/28 03:53:39;;;;;;;2.70;1.57;;;-0.20;99.90;;;;;;5223334;28;20520;-48
2023/01/28 03:56:16;;;;;;;2.67;2.37;;;-0.10;99.90;;;;;;5190967;28;20197;-49
2023/01/28 03:58:55;;;;;;;2.23;2.03;;;-0.20;99.90;;;;;;5222678;28;20475;-50
2023/01/28 04:01:26;;;;;;;3.03;1.30;;;-0.10;99.90;;;;;;5207446;28;20825;-49
2023/01/28 04:03:57;;;;;;;2.30;1.63;;;-0.10;99.90;;;;;;5227578;28;20570;-51
2023/01/28 04:06:28;;;;;;;2.87;1.50;;;0.00;99.90;;;;;;5229602;28;20646;-49
2023/01/28 04:08:58;;;;;;;2.20;2.10;;;0.00;99.90;;;;;;5226997;28;20200;-50
2023/01/28 04:11:29;;;;;;;4.20;1.80;;;0.10;99.90;;;;;;5208920;28;20569;-51
2023/01/28 04:14:00;;;;;;;2.47;2.27;;;0.00;99.90;;;;;;5208422;28;20195;-48
2023/01/28 04:16:31;;;;;;;2.50;2.03;;;0.10;99.90;;;;;;5228583;28;20189;-50
2023/01/28 04:19:01;;;;;;;2.83;1.20;;;0.10;99.90;;;;;;5227655;28;20219;-49
2023/01/28 04:21:32;;;;;;;1.83;1.67;;;0.10;99.90;;;;;;5207807;28;20188;-49
2023/01/28 04:24:03;;;;;;;1.40;1.40;;;0.20;99.90;;;;;;5205465;28;20190;-49
2023/01/28 04:26:34;;;;;;;3.40;1.40;;;0.10;99.90;;;;;;5203806;28;20556;-49
2023/01/28 04:29:05;;;;;;;6.50;1.30;;;0.10;99.90;;;;;;5225021;28;20437;-48
2023/01/28 04:31:36;;;;;;;1.37;1.37;;;0.10;99.90;;;;;;5208671;28;20189;-50
2023/01/28 04:34:08;;;;;;;4.90;1.43;;;0.10;99.90;;;;;;5220317;28;20958;-50
2023/01/28 04:36:38;;;;;;;5.30;1.87;;;0.20;99.90;;;;;;5208147;28;20435;-49
2023/01/28 04:39:09;;;;;;;1.77;1.67;;;0.20;99.90;;;;;;5208935;28;20483;-50
2023/01/28 04:41:40;;;;;;;4.77;1.50;;;0.20;99.90;;;;;;5226563;28;20186;-50
2023/01/28 04:44:12;;;;;;;4.17;1.73;;;0.20;99.90;;;;;;5204742;28;20657;-49
2023/01/28 04:46:43;;;;;;;1.50;1.40;;;0.30;99.90;;;;;;5224474;28;20179;-49
2023/01/28 04:49:13;;;;;;;1.17;1.13;;;0.30;99.90;;;;;;5208157;28;20479;-51
2023/01/28 04:51:44;;;;;;;1.73;1.63;;;0.30;99.90;;;;;;5223780;28;20198;-49
2023/01/28 04:54:15;;;;;;;2.70;1.50;;;0.30;99.90;;;;;;5208717;28;20201;-49
2023/01/28 04:56:46;;;;;;;3.13;2.03;;;0.30;99.90;;;;;;5205304;28;20191;-48
2023/01/28 04:59:18;;;;;;;8.50;1.30;;;0.30;99.90;;;;;;5207255;28;20222;-50
2023/01/28 05:01:49;;;;;;;2.07;1.63;;;0.30;99.90;;;;;;5204469;28;20192;-51
2023/01/28 05:04:20;;;;;;;2.00;1.53;;;0.30;99.90;;;;;;5207964;28;20441;-49
2023/01/28 05:06:53;;;;;;;4.13;1.77;;;0.40;99.90;;;;;;5204427;28;20196;-49
2023/01/28 05:09:24;;;;;;;7.20;1.40;;;0.30;99.90;;;;;;5226366;28;20217;-49
2023/01/28 05:11:55;;;;;;;2.20;2.03;;;0.30;99.90;;;;;;5219755;28;21022;-51
2023/01/28 05:14:26;;;;;;;8.30;1.40;;;0.40;99.90;;;;;;5202726;28;20181;-51
2023/01/28 05:17:00;;;;;;;2.33;1.80;;;0.40;99.90;;;;;;5207711;28;20252;-49
2023/01/28 05:19:30;;;;;;;4.10;2.47;;;0.30;99.90;;;;;;5220153;28;20595;-49
2023/01/28 05:22:01;;;;;;;3.13;2.93;;;0.40;99.90;;;;;;5206821;28;20605;-50
2023/01/28 05:24:32;;;;;;;2.30;2.20;;;0.40;99.90;;;;;;5206630;28;20255;-51
2023/01/28 05:27:02;;;;;;;3.13;2.60;;;0.40;99.90;;;;;;5205747;28;20190;-49
2023/01/28 05:29:33;;;;;;;2.47;2.17;;;0.50;99.90;;;;;;5206815;28;20238;-49
2023/01/28 05:32:04;;;;;;;3.70;2.20;;;0.50;99.90;;;;;;5207558;28;20183;-49
2023/01/28 05:34:35;;;;;;;2.13;1.97;;;0.50;99.90;;;;;;5205665;28;20222;-50
2023/01/28 05:37:06;;;;;;;3.07;1.83;;;0.50;99.90;;;;;;5206810;28;20476;-51
2023/01/28 05:39:37;;;;;;;4.20;3.70;;;0.50;99.90;;;;;;5205536;28;20504;-49
2023/01/28 05:42:08;;;;;;;15.00;6.10;;;0.60;99.90;;;;;;5221790;28;20244;-50
2023/01/28 05:44:39;;;;;;;6.53;5.33;;;0.70;99.90;;;;;;5223193;28;20186;-48
2023/01/28 05:47:09;;;;;;;4.80;4.40;;;0.70;99.90;;;;;;5203621;28;20791;-51
2023/01/28 05:49:40;;;;;;;4.00;3.17;;;0.70;99.90;;;;;;5206592;28;20210;-50
2023/01/28 05:52:11;;;;;;;6.53;4.13;;;0.70;99.90;;;;;;5225309;28;20212;-50
2023/01/28 05:54:43;;;;;;;10.03;2.80;;;0.80;99.90;;;;;;5208087;28;20554;-50
2023/01/28 05:57:14;;;;;;;4.73;3.60;;;0.80;99.90;;;;;;5225134;28;20501;-50
2023/01/28 05:59:44;;;;;;;4.90;3.37;;;0.80;99.90;;;;;;5207554;28;20625;-50
2023/01/28 06:02:15;;;;;;;7.63;4.90;;;0.70;99.90;;;;;;5224742;28;20197;-49
2023/01/28 06:04:46;;;;;;;5.93;4.20;;;0.80;99.90;;;;;;5223167;28;20592;-50
2023/01/28 06:07:19;;;;;;;7.73;5.50;;;0.70;99.90;;;;;;5224523;28;20435;-50
2023/01/28 06:09:49;;;;;;;5.77;4.40;;;0.80;99.90;;;;;;5166371;28;1653934;-50
2023/01/28 06:12:20;;;;;;;7.93;5.67;;;0.80;99.90;;;;;;5223665;28;21011;-50
2023/01/28 06:14:51;;;;;;;10.50;5.83;;;0.70;99.90;;;;;;5206505;28;20340;-51
2023/01/28 06:17:21;;;;;;;8.37;6.00;;;0.70;99.90;;;;;;5207302;28;20189;-50
2023/01/28 06:19:52;;;;;;;10.50;6.13;;;0.70;99.90;;;;;;5189210;28;20222;-49
2023/01/28 06:22:23;;;;;;;7.43;5.73;;;0.70;99.90;;;;;;5188964;28;20183;-48
2023/01/28 06:24:54;;;;;;;12.73;5.00;;;0.70;99.90;;;;;;5222625;28;20580;-50
2023/01/28 06:27:25;;;;;;;8.13;6.10;;;0.70;99.90;;;;;;5190637;28;20182;-50
2023/01/28 06:29:56;;;;;;;7.93;6.27;;;0.70;99.90;;;;;;5205192;28;20207;-52
2023/01/28 06:32:27;;;;;;;19.10;8.20;;;0.60;99.90;;;;;;5203983;28;20447;-49
2023/01/28 06:34:57;;;;;;;12.23;6.73;;;0.60;99.90;;;;;;5222209;28;20199;-49
2023/01/28 06:37:28;;;;;;;16.30;7.00;;;0.60;99.90;;;;;;5201449;28;20441;-49
2023/01/28 06:39:59;;;;;;;10.23;5.10;;;0.60;99.90;;;;;;5221838;28;20203;-50
2023/01/28 06:42:30;;;;;;;8.97;4.93;;;0.60;99.90;;;;;;5223638;28;20179;-50
2023/01/28 06:45:01;;;;;;;5.13;3.80;;;0.70;99.90;;;;;;5201714;28;20250;-50
2023/01/28 06:47:31;;;;;;;6.30;3.70;;;0.60;99.90;;;;;;5211744;28;20213;-49
2023/01/28 06:50:02;;;;;;;4.50;4.10;;;0.80;99.90;;;;;;5204229;28;20198;-51
2023/01/28 06:52:33;;;;;;;6.30;4.20;;;0.70;99.90;;;;;;5221047;28;20228;-49
2023/01/28 06:55:04;;;;;;;5.93;4.00;;;0.70;99.90;;;;;;5205411;28;20655;-51
2023/01/28 06:57:38;;;;;;;4.60;4.20;;;0.70;99.90;;;;;;5224101;28;20246;-51
2023/01/28 07:00:11;;;;;;;6.30;3.90;;;0.70;99.90;;;;;;5223758;28;20472;-51
2023/01/28 07:02:42;;;;;;;9.97;5.47;;;0.60;99.90;;;;;;5222436;28;20437;-50
2023/01/28 07:05:13;;;;;;;6.03;3.63;;;0.50;99.90;;;;;;5205011;28;20471;-51
2023/01/28 07:07:45;;;;;;;10.30;4.67;;;0.50;99.90;;;;;;5223957;28;20185;-50
2023/01/28 07:10:16;;;;;;;7.30;4.50;;;0.60;99.90;;;;;;5223585;28;20503;-48
2023/01/28 07:12:47;;;;;;;6.00;5.00;;;0.60;99.90;;;;;;5223369;28;20729;-49
2023/01/28 07:15:17;;;;;;;5.10;3.70;;;0.60;99.90;;;;;;5223395;28;21275;-50
2023/01/28 07:17:48;;;;;;;3.90;2.87;;;0.60;99.90;;;;;;5224869;28;20179;-50
2023/01/28 07:20:19;;;;;;;5.10;4.37;;;0.80;99.90;;;;;;5188298;28;20358;-50
2023/01/28 07:22:50;;;;;;;5.73;3.93;;;0.70;99.90;;;;;;5203896;28;20167;-50
2023/01/28 07:25:23;;;;;;;7.93;4.40;;;0.90;99.90;;;;;;5209211;28;20726;-48
2023/01/28 07:27:54;;;;;;;9.50;4.67;;;0.70;99.90;;;;;;5226065;28;20229;-50
2023/01/28 07:30:26;;;;;;;6.47;3.40;;;0.70;99.90;;;;;;5206205;28;20445;-50
2023/01/28 07:32:58;;;;;;;5.73;4.17;;;0.80;99.90;;;;;;5208553;28;20250;-50
2023/01/28 07:35:31;;;;;;;2.60;2.40;;;0.70;99.90;;;;;;5179485;28;20432;-50
2023/01/28 07:38:03;;;;;;;7.10;2.37;;;0.80;99.90;;;;;;5210808;28;20447;-50
2023/01/28 07:40:35;;;;;;;5.23;3.57;;;0.70;99.90;;;;;;5211848;28;20445;-49
2023/01/28 07:43:07;;;;;;;6.30;3.77;;;0.80;99.90;;;;;;5212368;28;20423;-49
2023/01/28 07:45:38;;;;;;;4.10;3.10;;;0.70;99.90;;;;;;5213696;28;20917;-50
2023/01/28 07:48:12;;;;;;;3.27;2.57;;;0.80;99.90;;;;;;5208824;28;20431;-49
2023/01/28 07:50:44;;;;;;;3.10;2.80;;;0.90;99.90;;;;;;5189119;28;20571;-49
2023/01/28 07:53:15;;;;;;;3.37;2.17;;;1.00;99.90;;;;;;5193971;28;20437;-48
2023/01/28 07:55:46;;;;;;;2.80;1.63;;;1.00;99.90;;;;;;5210953;28;20437;-48
2023/01/28 07:58:17;;;;;;;3.00;2.80;;;1.00;99.90;;;;;;5228472;28;20491;-49
2023/01/28 08:00:48;;;;;;;4.93;2.80;;;1.00;99.90;;;;;;5228704;28;20471;-50
2023/01/28 08:03:18;;;;;;;2.67;2.10;;;1.10;99.90;;;;;;5211379;28;20768;-50
2023/01/28 08:05:52;;;;;;;3.50;2.90;;;1.10;99.90;;;;;;5222706;28;20179;-50
2023/01/28 08:08:26;;;;;;;5.30;2.70;;;1.20;99.90;;;;;;5203319;28;20453;-51
2023/01/28 08:10:56;;;;;;;6.53;3.20;;;1.10;99.90;;;;;;5205560;28;20469;-49
2023/01/28 08:13:27;;;;;;;7.60;3.23;;;1.10;99.90;;;;;;5202418;28;21179;-49
2023/01/28 08:15:58;;;;;;;8.17;3.70;;;1.20;99.90;;;;;;5225285;28;20504;-48
2023/01/28 08:18:29;;;;;;;2.77;2.50;;;1.10;99.90;;;;;;5224267;28;20542;-49
2023/01/28 08:21:00;;;;;;;4.60;2.30;;;1.20;99.90;;;;;;5205823;28;20199;-50
2023/01/28 08:23:33;;;;;;;3.17;2.97;;;1.30;99.90;;;;;;5206578;28;20183;-48
2023/01/28 08:26:04;;;;;;;4.47;2.43;;;1.30;99.90;;;;;;5220588;28;20441;-50
2023/01/28 08:28:34;;;;;;;2.57;2.07;;;1.30;99.90;;;;;;5205842;28;20456;-50
2023/01/28 08:31:05;;;;;;;3.63;2.10;;;1.30;99.90;;;;;;5224642;28;21058;-50
2023/01/28 08:33:36;;;;;;;2.87;2.17;;;1.40;99.90;;;;;;5222851;28;20186;-50
2023/01/28 08:36:07;;;;;;;3.20;2.67;;;1.30;99.90;;;;;;5217740;28;20224;-50
2023/01/28 08:38:38;;;;;;;3.80;2.53;;;1.30;99.90;;;;;;5186144;28;20241;-49
2023/01/28 08:41:09;;;;;;;2.33;1.67;;;1.40;99.90;;;;;;5209695;28;20453;-51
2023/01/28 08:43:39;;;;;;;3.43;1.90;;;1.40;99.90;;;;;;5217613;28;20190;-51
2023/01/28 08:46:10;;;;;;;2.70;2.47;;;1.30;99.90;;;;;;5179633;28;20205;-50
2023/01/28 08:48:41;;;;;;;1.30;1.30;;;1.30;99.90;;;;;;5218893;28;20193;-49
2023/01/28 08:51:12;;;;;;;2.20;1.63;;;1.40;99.90;;;;;;5215040;28;20242;-49
2023/01/28 08:53:43;;;;;;;1.67;1.67;;;1.40;99.90;;;;;;5217610;28;20460;-50
2023/01/28 08:56:15;;;;;;;1.30;1.30;;;1.50;99.90;;;;;;5223307;28;20441;-50
2023/01/28 08:58:46;;;;;;;2.17;1.97;;;1.60;99.90;;;;;;5220806;28;20206;-51
2023/01/28 09:01:16;;;;;;;4.47;1.30;;;1.60;99.90;;;;;;5222201;28;20831;-50
2023/01/28 09:03:47;;;;;;;0.83;0.83;;;1.50;99.90;;;;;;5224657;28;20658;-50
2023/01/28 09:06:18;;;;;;;2.10;1.10;;;1.60;99.90;;;;;;5224407;28;20190;-50
2023/01/28 09:08:49;;;;;;;1.43;0.90;;;1.60;99.90;;;;;;5223808;28;20186;-49
2023/01/28 09:11:19;;;;;;;0.87;0.60;;;1.60;99.90;;;;;;5203138;28;20749;-50
2023/01/28 09:13:50;;;;;;;0.93;0.90;;;1.70;99.90;;;;;;5203818;28;20183;-50
2023/01/28 09:16:21;;;;;;;2.00;0.80;;;1.80;99.90;;;;;;5203723;28;20187;-51
2023/01/28 09:18:53;;;;;;;1.37;1.37;;;1.80;99.90;;;;;;5222905;28;20211;-51
2023/01/28 09:21:23;;;;;;;1.80;1.60;;;1.90;99.90;;;;;;5221425;28;20183;-51
2023/01/28 09:23:55;;;;;;;1.97;1.53;;;1.90;99.90;;;;;;5222637;28;20921;-49
2023/01/28 09:26:26;;;;;;;1.10;1.00;;;2.00;99.90;;;;;;5223185;28;20217;-51
2023/01/28 09:28:57;;;;;;;0.90;0.90;;;2.00;99.90;;;;;;5220547;28;20433;-50
2023/01/28 09:31:27;;;;;;;0.90;0.90;;;2.20;99.90;;;;;;5222965;28;20195;-50
2023/01/28 09:33:58;;;;;;;1.63;1.20;;;2.40;99.90;;;;;;5203902;28;20264;-50
2023/01/28 09:36:29;;;;;;;4.33;1.10;;;2.20;99.50;;;;;;5201985;28;20187;-51
2023/01/28 09:39:00;;;;;;;3.27;0.90;;;2.10;99.50;;;;;;5223312;28;20198;-49
2023/01/28 09:41:57;;;;;;;0.93;0.93;;;2.10;99.30;;;;;;5188419;28;20239;-50
2023/01/28 09:44:37;;;;;;;1.37;1.30;;;2.00;99.90;;;;;;5223283;28;20433;-50
2023/01/28 09:47:18;;;;;;;1.77;1.67;;;2.20;99.90;;;;;;5220954;28;20434;-51
2023/01/28 09:49:53;;;;;;;2.13;1.93;;;2.20;99.90;;;;;;5205619;28;20465;-50
2023/01/28 09:52:25;;;;;;;1.47;1.10;;;2.20;99.90;;;;;;5222336;28;20994;-48
2023/01/28 09:55:29;;;;;;;1.57;1.27;;;2.20;99.90;;;;;;5219768;28;21911;-52
2023/01/28 09:58:00;;;;;;;1.47;1.37;;;2.20;99.30;;;;;;5223846;28;20436;-50
2023/01/28 10:01:09;;;;;;;2.30;1.37;;;2.20;98.80;;;;;;5199595;28;20462;-51
2023/01/28 10:04:02;;;;;;;11.23;2.27;;;2.20;98.80;;;;;;5191806;28;20328;-51
2023/01/28 10:06:49;;;;;;;1.37;1.10;;;2.20;98.80;;;;;;5201620;28;20445;-50
2023/01/28 10:09:45;;;;;;;2.03;1.60;;;2.00;98.80;;;;;;5221878;28;20465;-51
2023/01/28 10:12:36;;;;;;;2.00;0.90;;;2.00;99.80;;;;;;5190280;28;20480;-49
2023/01/28 10:15:16;;;;;;;0.87;0.60;;;2.00;99.90;;;;;;5190802;28;20454;-50
2023/01/28 10:17:50;;;;;;;2.97;1.73;;;1.90;99.40;;;;;;5197151;28;20455;-49
2023/01/28 10:20:29;;;;;;;1.77;1.53;;;2.10;99.40;;;;;;5176299;28;20999;-49
2023/01/28 10:23:15;;;;;;;3.60;1.50;;;2.00;99.90;;;;;;5210649;28;20681;-50
2023/01/28 10:25:47;;;;;;;1.43;1.37;;;2.00;99.60;;;;;;5191606;28;21074;-50
2023/01/28 10:28:25;;;;;;;0.70;0.70;;;2.00;99.30;;;;;;5214364;28;20438;-50
2023/01/28 10:30:56;;;;;;;0.93;0.93;;;2.00;99.10;;;;;;5196242;28;20476;-50
2023/01/28 10:33:27;;;;;;;0.80;0.80;;;2.00;99.40;;;;;;5215143;28;20429;-51
2023/01/28 10:35:58;;;;;;;4.23;0.83;;;1.90;98.30;;;;;;5216303;28;20494;-49
2023/01/28 10:38:30;;;;;;;1.23;0.90;;;1.90;99.10;;;;;;5203475;28;20301;-49
2023/01/28 10:41:03;;;;;;;1.43;0.60;;;2.10;99.10;;;;;;5218035;28;20457;-49
2023/01/28 10:43:37;;;;;;;2.40;0.60;;;2.20;98.10;;;;;;5220424;28;21530;-50
2023/01/28 10:46:11;;;;;;;1.90;1.00;;;2.10;97.90;;;;;;5198700;28;20482;-50
2023/01/28 10:48:45;;;;;;;1.67;0.80;;;2.00;98.20;;;;;;5183497;28;20517;-51
2023/01/28 10:51:18;;;;;;;1.27;1.17;;;2.10;98.50;;;;;;5218002;28;21171;-48
2023/01/28 10:53:49;;;;;;;14.37;1.50;;;2.10;97.90;;;;;;5212492;28;20435;-51
2023/01/28 10:56:25;;;;;;;1.00;0.80;;;1.90;98.00;;;;;;5216112;28;20445;-50
2023/01/28 10:59:19;;;;;;;2.37;1.00;;;2.00;98.60;;;;;;5201392;28;20241;-51
2023/01/28 11:01:53;;;;;;;3.47;1.20;;;2.20;98.90;;;;;;5201430;28;20668;-51
2023/01/28 11:04:33;;;;;;;0.90;0.90;;;2.10;98.70;;;;;;5217209;28;20437;-50
2023/01/28 11:07:21;;;;;;;1.53;0.80;;;2.20;99.20;;;;;;5208513;28;20437;-51
2023/01/28 11:09:52;;;;;;;0.70;0.70;;;2.30;98.20;;;;;;5213222;28;20481;-51
2023/01/28 11:12:25;;;;;;;1.37;0.97;;;2.40;98.20;;;;;;5214832;28;20452;-51
2023/01/28 11:15:01;;;;;;;2.50;1.10;;;2.60;97.70;;;;;;5219469;28;20265;-51
2023/01/28 11:17:36;;;;;;;1.93;0.97;;;2.60;97.50;;;;;;5210416;28;20867;-51
2023/01/28 11:20:18;;;;;;;2.40;1.40;;;2.60;97.70;;;;;;5221243;28;20555;-50
2023/01/28 11:22:49;;;;;;;1.20;1.20;;;2.60;97.10;;;;;;5199477;28;20466;-49
2023/01/28 11:25:36;;;;;;;1.10;1.00;;;2.60;97.50;;;;;;5202656;28;20821;-51
2023/01/28 11:28:17;;;;;;;1.30;1.20;;;2.80;97.80;;;;;;5221599;28;20577;-50
2023/01/28 11:30:53;;;;;;;0.80;0.80;;;2.70;96.60;;;;;;5203671;28;20614;-51
2023/01/28 11:33:36;;;;;;;1.03;0.93;;;2.80;96.90;;;;;;5218451;28;20877;-51
2023/01/28 11:36:17;;;;;;;1.10;1.10;;;3.00;97.00;;;;;;5217233;28;20838;-50
2023/01/28 11:38:55;;;;;;;1.17;1.07;;;2.90;97.30;;;;;;5202674;28;20465;-51
2023/01/28 11:41:30;;;;;;;5.17;0.83;;;2.80;96.60;;;;;;5203492;28;20433;-51
2023/01/28 11:44:10;;;;;;;1.73;1.63;;;2.90;96.80;;;;;;5202287;28;20433;-52
2023/01/28 11:46:46;;;;;;;2.70;1.70;;;3.00;96.50;;;;;;5220519;28;20514;-51
2023/01/28 11:49:43;;;;;;;2.10;1.43;;;2.90;96.20;;;;;;5222195;28;20969;-50
2023/01/28 11:52:54;;;;;;;1.20;1.20;;;2.90;96.90;;;;;;5213731;28;20449;-49
2023/01/28 11:55:55;;;;;;;0.87;0.87;;;3.00;96.90;;;;;;5215668;28;20473;-51
2023/01/28 11:58:32;;;;;;;3.80;2.20;;;2.90;96.90;;;;;;5204194;28;20903;-50
2023/01/28 12:01:14;;;;;;;20.53;6.67;;;3.00;96.80;;;;;;5219337;28;20931;-51
2023/01/28 12:03:48;;;;;;;6.87;3.90;;;3.10;97.10;;;;;;5220381;28;20448;-49
2023/01/28 12:06:47;;;;;;;4.80;3.50;;;2.90;98.30;;;;;;5196676;28;20480;-50
2023/01/28 12:09:38;;;;;;;1.77;1.67;;;3.00;99.70;;;;;;5224422;28;21020;-50
2023/01/28 12:12:33;;;;;;;1.30;1.20;;;2.90;99.90;;;;;;5222719;28;20449;-50
2023/01/28 12:15:40;;;;;;;1.37;1.00;;;2.90;99.90;;;;;;5216447;28;20441;-51
2023/01/28 12:18:49;;;;;;;1.07;0.90;;;2.90;99.90;;;;;;5216653;28;20788;-50
2023/01/28 12:21:38;;;;;;;2.60;2.40;;;2.80;99.90;;;;;;5169463;28;20467;-49
2023/01/28 12:24:34;;;;;;;3.37;2.47;;;2.80;99.90;;;;;;5205217;28;20438;-48
2023/01/28 12:27:26;;;;;;;1.40;1.27;;;2.90;99.90;;;;;;5201442;28;20476;-50
2023/01/28 12:30:20;;;;;;;2.00;1.67;;;2.90;99.90;;;;;;5204747;28;20548;-48
2023/01/28 12:33:03;;;;;;;12.60;1.93;;;3.00;99.90;;;;;;5200947;28;20445;-50
2023/01/28 12:35:52;;;;;;;2.83;1.63;;;2.90;99.90;;;;;;5219767;28;20468;-50
2023/01/28 12:38:44;;;;;;;2.17;1.87;;;2.90;99.90;;;;;;5222383;28;20449;-50
2023/01/28 12:41:22;;;;;;;5.53;3.70;;;2.90;99.90;;;;;;5224323;28;20482;-50
2023/01/28 12:43:56;;;;;;;2.30;1.90;;;2.70;99.90;;;;;;5224120;28;20456;-50
2023/01/28 12:46:59;;;;;;;3.57;2.37;;;2.60;99.90;;;;;;5224059;28;20442;-50
2023/01/28 12:49:39;;;;;;;3.00;2.70;;;2.60;99.90;;;;;;5223669;28;20964;-50
2023/01/28 12:52:19;;;;;;;3.40;3.20;;;2.60;99.90;;;;;;5194476;28;20530;-49
2023/01/28 12:55:34;;;;;;;3.73;2.73;;;2.70;99.90;;;;;;5202474;28;20448;-51
2023/01/28 12:58:13;;;;;;;1.83;1.73;;;2.60;99.90;;;;;;5184361;28;20803;-50
2023/01/28 13:01:02;;;;;;;1.93;1.60;;;2.80;99.90;;;;;;5202844;28;20453;-48
2023/01/28 13:03:50;;;;;;;1.53;1.47;;;2.60;99.90;;;;;;5207398;28;21042;-50
2023/01/28 13:06:27;;;;;;;7.90;3.03;;;2.60;99.90;;;;;;5201151;28;20965;-50
2023/01/28 13:09:23;;;;;;;7.93;4.60;;;2.60;99.90;;;;;;5215966;28;20464;-51
2023/01/28 13:11:58;;;;;;;2.00;1.90;;;2.80;99.90;;;;;;5208006;22;20821;-53
2023/01/28 13:14:32;;;;;;;4.80;3.00;;;2.70;99.90;;;;;;5182828;28;20441;-50
2023/01/28 13:17:24;;;;;;;7.93;1.33;;;2.70;99.90;;;;;;5181548;28;20830;-51
2023/01/28 13:19:55;;;;;;;1.13;1.13;;;2.70;99.90;;;;;;5195316;28;20508;-48
2023/01/28 13:22:33;;;;;;;1.37;1.00;;;2.60;99.90;;;;;;5188798;28;20441;-50
2023/01/28 13:25:26;;;;;;;1.00;1.00;;;2.70;99.90;;;;;;5202216;28;20434;-51
2023/01/28 13:28:02;;;;;;;3.73;1.57;;;2.60;99.90;;;;;;5191560;28;20435;-49
2023/01/28 13:30:46;;;;;;;1.40;1.37;;;2.50;99.90;;;;;;5186585;28;21055;-53
2023/01/28 13:33:33;;;;;;;7.03;3.90;;;2.60;99.90;;;;;;5202189;28;20446;-50
2023/01/28 13:36:26;;;;;;;6.87;3.60;;;2.70;99.90;;;;;;5196279;28;20575;-54
2023/01/28 13:39:12;;;;;;;5.60;2.57;;;2.60;99.90;;;;;;5198991;28;20462;-50
2023/01/28 13:41:49;;;;;;;1.43;1.33;;;2.70;99.90;;;;;;5197432;28;20863;-51
2023/01/28 13:44:30;;;;;;;1.27;1.17;;;2.70;99.90;;;;;;5198807;28;20435;-50
2023/01/28 13:47:04;;;;;;;1.73;1.63;;;2.70;99.90;;;;;;5184217;28;20446;-53
2023/01/28 13:49:41;;;;;;;6.53;2.13;;;2.70;99.90;;;;;;5200790;28;20450;-51
2023/01/28 13:52:33;;;;;;;1.10;0.80;;;2.70;99.90;;;;;;5186810;28;20446;-53
2023/01/28 13:55:18;;;;;;;1.10;1.00;;;2.80;99.90;;;;;;5189664;28;20449;-51
2023/01/28 13:58:04;;;;;;;2.20;1.90;;;2.80;99.90;;;;;;5198386;28;20524;-52
2023/01/28 14:00:58;;;;;;;1.30;1.30;;;2.80;99.90;;;;;;5190969;28;20519;-51
2023/01/28 14:03:58;;;;;;;1.73;1.63;;;2.80;99.90;;;;;;5198271;28;20513;-50
2023/01/28 14:07:01;;;;;;;0.77;0.60;;;2.70;99.90;;;;;;5194644;28;20454;-51
2023/01/28 14:09:50;;;;;;;0.87;0.87;;;2.80;99.90;;;;;;5196204;28;20435;-52
2023/01/28 14:12:35;;;;;;;1.47;0.83;;;2.70;99.90;;;;;;5194439;28;20450;-52